sensor_id;sensor_type;location;lat;lon;timestamp;temperature;humidity
11536;DHT22;5824;49.336;8.652;2023-07-24T00:00:10;21.30;1.00
11536;DHT22;5824;49.336;8.652;2023-07-24T00:02:36;21.30;1.00
11536;DHT22;5824;49.336;8.652;2023-07-24T00:05:01;21.20;1.00
11536;DHT22;5824;49.336;8.652;2023-07-24T00:07:27;21.20;1.00
11536;DHT22;5824;49.336;8.652;2023-07-24T00:09:52;21.20;1.00
11536;DHT22;5824;49.336;8.652;2023-07-24T00:12:18;21.20;1.00
11536;DHT22;5824;49.336;8.652;2023-07-24T00:14:43;21.20;1.00
11536;DHT22;5824;49.336;8.652;2023-07-24T00:17:09;21.20;1.00
11536;DHT22;5824;49.336;8.652;2023-07-24T00:19:34;21.20;1.00
11536;DHT22;5824;49.336;8.652;2023-07-24T00:22:00;21.20;1.00
11536;DHT22;5824;49.336;8.652;2023-07-24T00:24:25;21.30;1.00
11536;DHT22;5824;49.336;8.652;2023-07-24T00:26:51;21.20;1.00
11536;DHT22;5824;49.336;8.652;2023-07-24T00:29:16;21.20;1.00
11536;DHT22;5824;49.336;8.652;2023-07-24T00:31:42;21.10;1.00
11536;DHT22;5824;49.336;8.652;2023-07-24T00:34:07;21.10;1.00
11536;DHT22;5824;49.336;8.652;2023-07-24T00:36:33;21.10;1.00
11536;DHT22;5824;49.336;8.652;2023-07-24T00:38:58;21.00;1.00
11536;DHT22;5824;49.336;8.652;2023-07-24T00:41:23;21.00;1.00
11536;DHT22;5824;49.336;8.652;2023-07-24T00:43:49;20.90;1.00
11536;DHT22;5824;49.336;8.652;2023-07-24T00:46:15;20.80;1.00
11536;DHT22;5824;49.336;8.652;2023-07-24T00:48:40;20.80;1.00
11536;DHT22;5824;49.336;8.652;2023-07-24T00:51:06;20.80;1.00
11536;DHT22;5824;49.336;8.652;2023-07-24T00:53:32;20.70;1.00
11536;DHT22;5824;49.336;8.652;2023-07-24T00:55:57;20.70;1.00
11536;DHT22;5824;49.336;8.652;2023-07-24T00:58:23;20.70;1.00
11536;DHT22;5824;49.336;8.652;2023-07-24T01:00:50;20.70;1.00
11536;DHT22;5824;49.336;8.652;2023-07-24T01:03:15;20.70;1.00
11536;DHT22;5824;49.336;8.652;2023-07-24T01:05:41;20.60;1.00
11536;DHT22;5824;49.336;8.652;2023-07-24T01:08:07;20.50;1.00
11536;DHT22;5824;49.336;8.652;2023-07-24T01:10:33;20.60;1.00
11536;DHT22;5824;49.336;8.652;2023-07-24T01:13:20;20.50;1.00
11536;DHT22;5824;49.336;8.652;2023-07-24T01:15:54;20.60;1.00
11536;DHT22;5824;49.336;8.652;2023-07-24T01:18:22;20.50;1.00
11536;DHT22;5824;49.336;8.652;2023-07-24T01:20:53;20.50;1.00
11536;DHT22;5824;49.336;8.652;2023-07-24T01:26:21;20.70;1.00
11536;DHT22;5824;49.336;8.652;2023-07-24T01:28:49;20.80;1.00
11536;DHT22;5824;49.336;8.652;2023-07-24T01:31:14;20.80;1.00
11536;DHT22;5824;49.336;8.652;2023-07-24T01:33:42;20.90;1.00
11536;DHT22;5824;49.336;8.652;2023-07-24T01:36:07;20.70;1.00
11536;DHT22;5824;49.336;8.652;2023-07-24T01:38:35;20.70;1.00
11536;DHT22;5824;49.336;8.652;2023-07-24T01:41:01;20.80;1.00
11536;DHT22;5824;49.336;8.652;2023-07-24T01:43:29;20.80;1.00
11536;DHT22;5824;49.336;8.652;2023-07-24T01:45:55;20.90;1.00
11536;DHT22;5824;49.336;8.652;2023-07-24T01:48:20;20.90;1.00
11536;DHT22;5824;49.336;8.652;2023-07-24T01:50:46;21.00;1.00
11536;DHT22;5824;49.336;8.652;2023-07-24T01:53:11;20.90;1.00
11536;DHT22;5824;49.336;8.652;2023-07-24T01:55:37;20.90;1.00
11536;DHT22;5824;49.336;8.652;2023-07-24T01:58:03;20.90;1.00
11536;DHT22;5824;49.336;8.652;2023-07-24T02:00:28;20.90;1.00
11536;DHT22;5824;49.336;8.652;2023-07-24T02:02:54;22.40;1.00
11536;DHT22;5824;49.336;8.652;2023-07-24T02:05:19;20.80;1.00
11536;DHT22;5824;49.336;8.652;2023-07-24T02:07:45;20.70;1.00
11536;DHT22;5824;49.336;8.652;2023-07-24T02:10:10;20.60;1.00
11536;DHT22;5824;49.336;8.652;2023-07-24T02:12:36;20.50;1.00
11536;DHT22;5824;49.336;8.652;2023-07-24T02:15:02;20.40;1.00
11536;DHT22;5824;49.336;8.652;2023-07-24T02:17:27;20.40;1.00
11536;DHT22;5824;49.336;8.652;2023-07-24T02:19:53;20.50;1.00
11536;DHT22;5824;49.336;8.652;2023-07-24T02:22:18;20.50;1.00
11536;DHT22;5824;49.336;8.652;2023-07-24T02:24:44;20.60;1.00
11536;DHT22;5824;49.336;8.652;2023-07-24T02:27:12;20.70;1.00
11536;DHT22;5824;49.336;8.652;2023-07-24T02:29:39;20.70;1.00
11536;DHT22;5824;49.336;8.652;2023-07-24T02:32:05;20.70;1.00
11536;DHT22;5824;49.336;8.652;2023-07-24T02:34:30;20.60;1.00
11536;DHT22;5824;49.336;8.652;2023-07-24T02:36:56;20.50;1.00
11536;DHT22;5824;49.336;8.652;2023-07-24T02:39:21;20.50;1.00
11536;DHT22;5824;49.336;8.652;2023-07-24T02:41:48;20.30;1.00
11536;DHT22;5824;49.336;8.652;2023-07-24T02:44:14;20.30;1.00
11536;DHT22;5824;49.336;8.652;2023-07-24T02:46:39;20.40;1.00
11536;DHT22;5824;49.336;8.652;2023-07-24T02:49:05;20.40;1.00
11536;DHT22;5824;49.336;8.652;2023-07-24T02:51:31;20.40;1.00
11536;DHT22;5824;49.336;8.652;2023-07-24T02:53:57;20.40;1.00
11536;DHT22;5824;49.336;8.652;2023-07-24T02:56:22;20.50;1.00
11536;DHT22;5824;49.336;8.652;2023-07-24T02:58:48;20.50;1.00
11536;DHT22;5824;49.336;8.652;2023-07-24T03:01:13;20.60;1.00
11536;DHT22;5824;49.336;8.652;2023-07-24T03:03:40;20.60;1.00
11536;DHT22;5824;49.336;8.652;2023-07-24T03:06:06;20.70;1.00
11536;DHT22;5824;49.336;8.652;2023-07-24T03:08:32;20.70;1.00
11536;DHT22;5824;49.336;8.652;2023-07-24T03:10:57;20.80;1.00
11536;DHT22;5824;49.336;8.652;2023-07-24T03:13:23;20.80;1.00
11536;DHT22;5824;49.336;8.652;2023-07-24T03:15:56;20.80;1.00
11536;DHT22;5824;49.336;8.652;2023-07-24T03:18:22;20.80;1.00
11536;DHT22;5824;49.336;8.652;2023-07-24T03:20:48;20.90;1.00
11536;DHT22;5824;49.336;8.652;2023-07-24T03:23:14;20.80;1.00
11536;DHT22;5824;49.336;8.652;2023-07-24T03:25:40;20.80;1.00
11536;DHT22;5824;49.336;8.652;2023-07-24T03:28:06;20.70;1.00
11536;DHT22;5824;49.336;8.652;2023-07-24T03:30:31;20.70;1.00
11536;DHT22;5824;49.336;8.652;2023-07-24T03:32:57;20.80;1.00
11536;DHT22;5824;49.336;8.652;2023-07-24T03:35:23;20.80;1.00
11536;DHT22;5824;49.336;8.652;2023-07-24T03:37:48;20.80;1.00
11536;DHT22;5824;49.336;8.652;2023-07-24T03:40:14;20.90;1.00
11536;DHT22;5824;49.336;8.652;2023-07-24T03:42:41;20.90;1.00
11536;DHT22;5824;49.336;8.652;2023-07-24T03:45:07;20.90;1.00
11536;DHT22;5824;49.336;8.652;2023-07-24T03:47:32;20.90;1.00
11536;DHT22;5824;49.336;8.652;2023-07-24T03:49:58;20.90;1.00
11536;DHT22;5824;49.336;8.652;2023-07-24T03:52:23;20.80;1.00
11536;DHT22;5824;49.336;8.652;2023-07-24T03:54:49;20.90;1.00
11536;DHT22;5824;49.336;8.652;2023-07-24T03:57:14;20.80;1.00
11536;DHT22;5824;49.336;8.652;2023-07-24T03:59:40;20.80;1.00
11536;DHT22;5824;49.336;8.652;2023-07-24T04:02:06;20.80;1.00
11536;DHT22;5824;49.336;8.652;2023-07-24T04:04:31;20.80;1.00
11536;DHT22;5824;49.336;8.652;2023-07-24T04:06:58;20.70;1.00
11536;DHT22;5824;49.336;8.652;2023-07-24T04:09:23;20.70;1.00
11536;DHT22;5824;49.336;8.652;2023-07-24T04:11:49;20.80;1.00
11536;DHT22;5824;49.336;8.652;2023-07-24T04:14:14;20.80;1.00
11536;DHT22;5824;49.336;8.652;2023-07-24T04:16:39;20.90;1.00
11536;DHT22;5824;49.336;8.652;2023-07-24T04:19:05;20.90;1.00
11536;DHT22;5824;49.336;8.652;2023-07-24T04:21:31;21.00;1.00
11536;DHT22;5824;49.336;8.652;2023-07-24T04:23:56;21.00;1.00
11536;DHT22;5824;49.336;8.652;2023-07-24T04:26:22;21.00;1.00
11536;DHT22;5824;49.336;8.652;2023-07-24T04:28:47;21.00;1.00
11536;DHT22;5824;49.336;8.652;2023-07-24T04:31:13;21.10;1.00
11536;DHT22;5824;49.336;8.652;2023-07-24T04:33:39;21.10;1.00
11536;DHT22;5824;49.336;8.652;2023-07-24T04:36:04;21.10;1.00
11536;DHT22;5824;49.336;8.652;2023-07-24T04:38:30;21.20;1.00
11536;DHT22;5824;49.336;8.652;2023-07-24T04:40:56;21.20;1.00
11536;DHT22;5824;49.336;8.652;2023-07-24T04:43:21;21.10;1.00
11536;DHT22;5824;49.336;8.652;2023-07-24T04:45:47;21.10;1.00
11536;DHT22;5824;49.336;8.652;2023-07-24T04:48:12;21.10;1.00
11536;DHT22;5824;49.336;8.652;2023-07-24T04:50:38;21.20;1.00
11536;DHT22;5824;49.336;8.652;2023-07-24T04:53:03;21.20;1.00
11536;DHT22;5824;49.336;8.652;2023-07-24T04:55:29;21.30;1.00
11536;DHT22;5824;49.336;8.652;2023-07-24T04:57:54;21.30;1.00
11536;DHT22;5824;49.336;8.652;2023-07-24T05:00:20;21.30;1.00
11536;DHT22;5824;49.336;8.652;2023-07-24T05:02:45;21.40;1.00
11536;DHT22;5824;49.336;8.652;2023-07-24T05:05:11;21.50;1.00
11536;DHT22;5824;49.336;8.652;2023-07-24T05:07:36;21.50;1.00
11536;DHT22;5824;49.336;8.652;2023-07-24T05:10:02;21.50;1.00
11536;DHT22;5824;49.336;8.652;2023-07-24T05:12:27;21.60;1.00
11536;DHT22;5824;49.336;8.652;2023-07-24T05:14:53;21.60;1.00
11536;DHT22;5824;49.336;8.652;2023-07-24T05:17:18;21.70;1.00
11536;DHT22;5824;49.336;8.652;2023-07-24T05:19:44;21.80;1.00
11536;DHT22;5824;49.336;8.652;2023-07-24T05:22:09;21.80;1.00
11536;DHT22;5824;49.336;8.652;2023-07-24T05:24:36;21.80;1.00
11536;DHT22;5824;49.336;8.652;2023-07-24T05:27:03;21.90;1.00
11536;DHT22;5824;49.336;8.652;2023-07-24T05:29:29;21.90;1.00
11536;DHT22;5824;49.336;8.652;2023-07-24T05:31:54;21.90;1.00
11536;DHT22;5824;49.336;8.652;2023-07-24T05:34:20;21.90;1.00
11536;DHT22;5824;49.336;8.652;2023-07-24T05:36:45;21.90;1.00
11536;DHT22;5824;49.336;8.652;2023-07-24T05:39:11;21.90;1.00
11536;DHT22;5824;49.336;8.652;2023-07-24T05:41:36;21.90;1.00
11536;DHT22;5824;49.336;8.652;2023-07-24T05:44:02;21.90;1.00
11536;DHT22;5824;49.336;8.652;2023-07-24T05:46:27;22.00;1.00
11536;DHT22;5824;49.336;8.652;2023-07-24T05:48:53;22.00;1.00
11536;DHT22;5824;49.336;8.652;2023-07-24T05:51:18;22.00;1.00
11536;DHT22;5824;49.336;8.652;2023-07-24T05:53:43;22.00;1.00
11536;DHT22;5824;49.336;8.652;2023-07-24T05:56:09;22.00;1.00
11536;DHT22;5824;49.336;8.652;2023-07-24T05:58:34;22.00;1.00
11536;DHT22;5824;49.336;8.652;2023-07-24T06:01:00;21.90;1.00
11536;DHT22;5824;49.336;8.652;2023-07-24T06:03:26;21.90;1.00
11536;DHT22;5824;49.336;8.652;2023-07-24T06:05:55;22.00;1.00
11536;DHT22;5824;49.336;8.652;2023-07-24T06:08:21;22.00;1.00
11536;DHT22;5824;49.336;8.652;2023-07-24T06:10:48;22.00;1.00
11536;DHT22;5824;49.336;8.652;2023-07-24T06:13:17;22.10;1.00
11536;DHT22;5824;49.336;8.652;2023-07-24T06:15:43;21.90;1.00
11536;DHT22;5824;49.336;8.652;2023-07-24T06:18:09;22.00;1.00
11536;DHT22;5824;49.336;8.652;2023-07-24T06:20:35;21.90;1.00
11536;DHT22;5824;49.336;8.652;2023-07-24T06:23:00;22.00;1.00
11536;DHT22;5824;49.336;8.652;2023-07-24T06:25:26;22.00;1.00
11536;DHT22;5824;49.336;8.652;2023-07-24T06:27:51;22.10;1.00
11536;DHT22;5824;49.336;8.652;2023-07-24T06:30:17;22.10;1.00
11536;DHT22;5824;49.336;8.652;2023-07-24T06:32:42;22.10;1.00
11536;DHT22;5824;49.336;8.652;2023-07-24T06:35:08;22.20;1.00
11536;DHT22;5824;49.336;8.652;2023-07-24T06:37:34;22.30;1.00
11536;DHT22;5824;49.336;8.652;2023-07-24T06:39:59;22.30;1.00
11536;DHT22;5824;49.336;8.652;2023-07-24T06:42:25;22.30;1.00
11536;DHT22;5824;49.336;8.652;2023-07-24T06:44:51;22.30;1.00
11536;DHT22;5824;49.336;8.652;2023-07-24T06:47:16;22.40;1.00
11536;DHT22;5824;49.336;8.652;2023-07-24T06:49:41;22.60;1.00
11536;DHT22;5824;49.336;8.652;2023-07-24T06:52:07;22.60;1.00
11536;DHT22;5824;49.336;8.652;2023-07-24T06:54:32;22.70;1.00
11536;DHT22;5824;49.336;8.652;2023-07-24T06:56:58;22.80;1.00
11536;DHT22;5824;49.336;8.652;2023-07-24T06:59:23;22.80;1.00
11536;DHT22;5824;49.336;8.652;2023-07-24T07:01:49;23.00;1.00
11536;DHT22;5824;49.336;8.652;2023-07-24T07:04:15;23.10;1.00
11536;DHT22;5824;49.336;8.652;2023-07-24T07:06:41;23.00;1.00
11536;DHT22;5824;49.336;8.652;2023-07-24T07:09:06;23.10;1.00
11536;DHT22;5824;49.336;8.652;2023-07-24T07:11:32;22.90;1.00
11536;DHT22;5824;49.336;8.652;2023-07-24T07:13:57;22.70;1.00
11536;DHT22;5824;49.336;8.652;2023-07-24T07:16:23;22.80;1.00
11536;DHT22;5824;49.336;8.652;2023-07-24T07:18:49;22.90;1.00
11536;DHT22;5824;49.336;8.652;2023-07-24T07:21:14;22.90;1.00
11536;DHT22;5824;49.336;8.652;2023-07-24T07:23:40;22.90;1.00
11536;DHT22;5824;49.336;8.652;2023-07-24T07:26:05;22.90;1.00
11536;DHT22;5824;49.336;8.652;2023-07-24T07:28:31;22.90;1.00
11536;DHT22;5824;49.336;8.652;2023-07-24T07:30:56;23.20;1.00
11536;DHT22;5824;49.336;8.652;2023-07-24T07:33:22;23.50;1.00
11536;DHT22;5824;49.336;8.652;2023-07-24T07:35:48;23.70;1.00
11536;DHT22;5824;49.336;8.652;2023-07-24T07:38:13;24.10;1.00
11536;DHT22;5824;49.336;8.652;2023-07-24T07:40:39;24.10;1.00
11536;DHT22;5824;49.336;8.652;2023-07-24T07:43:05;24.00;1.00
11536;DHT22;5824;49.336;8.652;2023-07-24T07:45:30;23.60;1.00
11536;DHT22;5824;49.336;8.652;2023-07-24T07:47:56;23.80;1.00
11536;DHT22;5824;49.336;8.652;2023-07-24T07:50:21;23.80;1.00
11536;DHT22;5824;49.336;8.652;2023-07-24T07:52:51;23.80;1.00
11536;DHT22;5824;49.336;8.652;2023-07-24T07:55:20;23.90;1.00
11536;DHT22;5824;49.336;8.652;2023-07-24T07:57:45;23.90;1.00
11536;DHT22;5824;49.336;8.652;2023-07-24T08:00:11;23.90;1.00
11536;DHT22;5824;49.336;8.652;2023-07-24T08:02:37;23.80;1.00
11536;DHT22;5824;49.336;8.652;2023-07-24T08:05:09;23.90;1.00
11536;DHT22;5824;49.336;8.652;2023-07-24T08:07:35;24.00;1.00
11536;DHT22;5824;49.336;8.652;2023-07-24T08:10:01;24.00;1.00
11536;DHT22;5824;49.336;8.652;2023-07-24T08:12:27;24.00;1.00
11536;DHT22;5824;49.336;8.652;2023-07-24T08:14:52;24.10;1.00
11536;DHT22;5824;49.336;8.652;2023-07-24T08:17:18;24.20;1.00
11536;DHT22;5824;49.336;8.652;2023-07-24T08:19:43;24.30;1.00
11536;DHT22;5824;49.336;8.652;2023-07-24T08:22:09;24.30;1.00
11536;DHT22;5824;49.336;8.652;2023-07-24T08:24:35;24.20;1.00
11536;DHT22;5824;49.336;8.652;2023-07-24T08:27:01;24.20;1.00
11536;DHT22;5824;49.336;8.652;2023-07-24T08:29:26;24.00;1.00
11536;DHT22;5824;49.336;8.652;2023-07-24T08:31:52;24.00;1.00
11536;DHT22;5824;49.336;8.652;2023-07-24T08:34:18;23.80;1.00
11536;DHT22;5824;49.336;8.652;2023-07-24T08:36:43;24.00;1.00
11536;DHT22;5824;49.336;8.652;2023-07-24T08:39:09;24.00;1.00
11536;DHT22;5824;49.336;8.652;2023-07-24T08:41:34;23.90;1.00
11536;DHT22;5824;49.336;8.652;2023-07-24T08:44:01;24.00;1.00
11536;DHT22;5824;49.336;8.652;2023-07-24T08:46:27;23.90;1.00
11536;DHT22;5824;49.336;8.652;2023-07-24T08:48:54;23.80;1.00
11536;DHT22;5824;49.336;8.652;2023-07-24T08:51:21;24.00;1.00
11536;DHT22;5824;49.336;8.652;2023-07-24T08:53:47;24.20;1.00
11536;DHT22;5824;49.336;8.652;2023-07-24T08:56:13;25.00;1.00
11536;DHT22;5824;49.336;8.652;2023-07-24T08:58:40;25.70;1.00
11536;DHT22;5824;49.336;8.652;2023-07-24T09:01:06;25.80;1.00
11536;DHT22;5824;49.336;8.652;2023-07-24T09:03:33;26.10;1.00
11536;DHT22;5824;49.336;8.652;2023-07-24T09:05:58;26.50;1.00
11536;DHT22;5824;49.336;8.652;2023-07-24T09:08:40;26.20;1.00
11536;DHT22;5824;49.336;8.652;2023-07-24T09:11:07;25.90;1.00
11536;DHT22;5824;49.336;8.652;2023-07-24T09:13:35;25.50;1.00
11536;DHT22;5824;49.336;8.652;2023-07-24T09:16:00;25.30;1.00
11536;DHT22;5824;49.336;8.652;2023-07-24T09:18:26;25.10;1.00
11536;DHT22;5824;49.336;8.652;2023-07-24T09:20:52;25.00;1.00
11536;DHT22;5824;49.336;8.652;2023-07-24T09:23:27;24.80;1.00
11536;DHT22;5824;49.336;8.652;2023-07-24T09:25:55;24.70;1.00
11536;DHT22;5824;49.336;8.652;2023-07-24T09:28:21;24.80;1.00
11536;DHT22;5824;49.336;8.652;2023-07-24T09:30:54;25.20;1.00
11536;DHT22;5824;49.336;8.652;2023-07-24T09:33:38;25.50;1.00
11536;DHT22;5824;49.336;8.652;2023-07-24T09:36:04;26.00;1.00
11536;DHT22;5824;49.336;8.652;2023-07-24T09:38:32;26.50;1.00
11536;DHT22;5824;49.336;8.652;2023-07-24T09:40:58;26.80;1.00
11536;DHT22;5824;49.336;8.652;2023-07-24T09:43:25;26.80;1.00
11536;DHT22;5824;49.336;8.652;2023-07-24T09:45:52;26.40;1.00
11536;DHT22;5824;49.336;8.652;2023-07-24T09:48:18;26.20;1.00
11536;DHT22;5824;49.336;8.652;2023-07-24T09:50:45;26.00;1.00
11536;DHT22;5824;49.336;8.652;2023-07-24T09:53:24;26.00;1.00
11536;DHT22;5824;49.336;8.652;2023-07-24T09:56:00;25.90;1.00
11536;DHT22;5824;49.336;8.652;2023-07-24T09:58:26;25.50;1.00
11536;DHT22;5824;49.336;8.652;2023-07-24T10:00:55;25.60;1.00
11536;DHT22;5824;49.336;8.652;2023-07-24T10:03:22;25.50;1.00
11536;DHT22;5824;49.336;8.652;2023-07-24T10:05:48;25.20;1.00
11536;DHT22;5824;49.336;8.652;2023-07-24T10:08:16;25.10;1.00
11536;DHT22;5824;49.336;8.652;2023-07-24T10:10:42;24.90;1.00
11536;DHT22;5824;49.336;8.652;2023-07-24T10:13:09;25.00;1.00
11536;DHT22;5824;49.336;8.652;2023-07-24T10:15:37;24.80;1.00
11536;DHT22;5824;49.336;8.652;2023-07-24T10:18:04;24.80;1.00
11536;DHT22;5824;49.336;8.652;2023-07-24T10:20:34;24.90;1.00
11536;DHT22;5824;49.336;8.652;2023-07-24T10:23:03;24.90;1.00
11536;DHT22;5824;49.336;8.652;2023-07-24T10:25:33;24.80;1.00
11536;DHT22;5824;49.336;8.652;2023-07-24T10:28:07;24.70;1.00
11536;DHT22;5824;49.336;8.652;2023-07-24T10:30:39;24.70;1.00
11536;DHT22;5824;49.336;8.652;2023-07-24T10:33:07;24.70;1.00
11536;DHT22;5824;49.336;8.652;2023-07-24T10:35:40;24.60;1.00
11536;DHT22;5824;49.336;8.652;2023-07-24T10:38:06;24.70;1.00
11536;DHT22;5824;49.336;8.652;2023-07-24T10:40:33;24.70;1.00
11536;DHT22;5824;49.336;8.652;2023-07-24T10:43:09;24.30;1.00
11536;DHT22;5824;49.336;8.652;2023-07-24T10:45:47;24.50;1.00
11536;DHT22;5824;49.336;8.652;2023-07-24T10:48:15;24.40;1.00
11536;DHT22;5824;49.336;8.652;2023-07-24T10:50:42;24.50;1.00
11536;DHT22;5824;49.336;8.652;2023-07-24T10:53:09;24.60;1.00
11536;DHT22;5824;49.336;8.652;2023-07-24T10:55:35;24.70;1.00
11536;DHT22;5824;49.336;8.652;2023-07-24T10:58:00;24.80;1.00
11536;DHT22;5824;49.336;8.652;2023-07-24T11:00:27;24.80;1.00
11536;DHT22;5824;49.336;8.652;2023-07-24T11:02:53;24.70;1.00
11536;DHT22;5824;49.336;8.652;2023-07-24T11:05:23;24.60;1.00
11536;DHT22;5824;49.336;8.652;2023-07-24T11:07:49;24.50;1.00
11536;DHT22;5824;49.336;8.652;2023-07-24T11:10:19;24.40;1.00
11536;DHT22;5824;49.336;8.652;2023-07-24T11:12:45;24.50;1.00
11536;DHT22;5824;49.336;8.652;2023-07-24T11:15:12;24.60;1.00
11536;DHT22;5824;49.336;8.652;2023-07-24T11:17:38;24.90;1.00
11536;DHT22;5824;49.336;8.652;2023-07-24T11:20:08;25.30;1.00
11536;DHT22;5824;49.336;8.652;2023-07-24T11:22:34;25.70;1.00
11536;DHT22;5824;49.336;8.652;2023-07-24T11:25:00;25.90;1.00
11536;DHT22;5824;49.336;8.652;2023-07-24T11:27:27;25.90;1.00
11536;DHT22;5824;49.336;8.652;2023-07-24T11:29:52;25.90;1.00
11536;DHT22;5824;49.336;8.652;2023-07-24T11:32:21;25.80;1.00
11536;DHT22;5824;49.336;8.652;2023-07-24T11:34:48;26.00;1.00
11536;DHT22;5824;49.336;8.652;2023-07-24T11:37:15;26.10;1.00
11536;DHT22;5824;49.336;8.652;2023-07-24T11:39:41;26.10;1.00
11536;DHT22;5824;49.336;8.652;2023-07-24T11:42:07;26.20;1.00
11536;DHT22;5824;49.336;8.652;2023-07-24T11:44:33;26.30;1.00
11536;DHT22;5824;49.336;8.652;2023-07-24T11:49:29;26.10;1.00
11536;DHT22;5824;49.336;8.652;2023-07-24T11:52:04;25.90;1.00
11536;DHT22;5824;49.336;8.652;2023-07-24T11:54:33;25.80;1.00
11536;DHT22;5824;49.336;8.652;2023-07-24T11:56:58;25.60;1.00
11536;DHT22;5824;49.336;8.652;2023-07-24T11:59:24;25.80;1.00
11536;DHT22;5824;49.336;8.652;2023-07-24T12:01:50;25.30;1.00
11536;DHT22;5824;49.336;8.652;2023-07-24T12:04:16;25.30;1.00
11536;DHT22;5824;49.336;8.652;2023-07-24T12:06:42;25.60;1.00
11536;DHT22;5824;49.336;8.652;2023-07-24T12:09:07;25.50;1.00
11536;DHT22;5824;49.336;8.652;2023-07-24T12:11:38;25.70;1.00
11536;DHT22;5824;49.336;8.652;2023-07-24T12:14:04;25.90;1.00
11536;DHT22;5824;49.336;8.652;2023-07-24T12:16:29;26.00;1.00
11536;DHT22;5824;49.336;8.652;2023-07-24T12:18:56;26.20;1.00
11536;DHT22;5824;49.336;8.652;2023-07-24T12:21:21;25.70;1.00
11536;DHT22;5824;49.336;8.652;2023-07-24T12:23:47;25.30;1.00
11536;DHT22;5824;49.336;8.652;2023-07-24T12:26:12;25.20;1.00
11536;DHT22;5824;49.336;8.652;2023-07-24T12:28:38;25.00;1.00
11536;DHT22;5824;49.336;8.652;2023-07-24T12:31:03;24.50;1.00
11536;DHT22;5824;49.336;8.652;2023-07-24T12:33:29;24.30;1.00
11536;DHT22;5824;49.336;8.652;2023-07-24T12:35:55;24.10;1.00
11536;DHT22;5824;49.336;8.652;2023-07-24T12:38:20;24.40;1.00
11536;DHT22;5824;49.336;8.652;2023-07-24T12:40:46;24.80;1.00
11536;DHT22;5824;49.336;8.652;2023-07-24T12:43:11;24.90;1.00
11536;DHT22;5824;49.336;8.652;2023-07-24T12:45:37;24.70;1.00
11536;DHT22;5824;49.336;8.652;2023-07-24T12:48:02;24.70;1.00
11536;DHT22;5824;49.336;8.652;2023-07-24T12:50:28;24.90;1.00
11536;DHT22;5824;49.336;8.652;2023-07-24T12:52:53;25.40;1.00
11536;DHT22;5824;49.336;8.652;2023-07-24T12:55:19;25.60;1.00
11536;DHT22;5824;49.336;8.652;2023-07-24T12:57:44;26.00;1.00
11536;DHT22;5824;49.336;8.652;2023-07-24T13:00:10;26.80;1.00
11536;DHT22;5824;49.336;8.652;2023-07-24T13:02:36;28.10;1.00
11536;DHT22;5824;49.336;8.652;2023-07-24T13:05:02;29.90;1.00
11536;DHT22;5824;49.336;8.652;2023-07-24T13:07:27;30.20;1.00
11536;DHT22;5824;49.336;8.652;2023-07-24T13:09:54;30.60;1.00
11536;DHT22;5824;49.336;8.652;2023-07-24T13:12:20;31.30;1.00
11536;DHT22;5824;49.336;8.652;2023-07-24T13:14:45;31.50;1.00
11536;DHT22;5824;49.336;8.652;2023-07-24T13:17:11;31.20;1.00
11536;DHT22;5824;49.336;8.652;2023-07-24T13:19:37;31.70;1.00
11536;DHT22;5824;49.336;8.652;2023-07-24T13:22:02;33.40;1.00
11536;DHT22;5824;49.336;8.652;2023-07-24T13:24:28;34.90;1.00
11536;DHT22;5824;49.336;8.652;2023-07-24T13:26:53;35.70;1.00
11536;DHT22;5824;49.336;8.652;2023-07-24T13:29:19;35.50;1.00
11536;DHT22;5824;49.336;8.652;2023-07-24T13:31:44;35.00;1.00
11536;DHT22;5824;49.336;8.652;2023-07-24T13:34:10;35.40;1.00
11536;DHT22;5824;49.336;8.652;2023-07-24T13:36:36;34.70;1.00
11536;DHT22;5824;49.336;8.652;2023-07-24T13:39:02;32.90;1.00
11536;DHT22;5824;49.336;8.652;2023-07-24T13:41:27;30.80;1.00
11536;DHT22;5824;49.336;8.652;2023-07-24T13:43:53;29.50;1.00
11536;DHT22;5824;49.336;8.652;2023-07-24T13:46:18;29.30;1.00
11536;DHT22;5824;49.336;8.652;2023-07-24T13:48:44;29.60;1.00
11536;DHT22;5824;49.336;8.652;2023-07-24T13:51:09;30.30;1.00
11536;DHT22;5824;49.336;8.652;2023-07-24T13:53:36;31.50;1.00
11536;DHT22;5824;49.336;8.652;2023-07-24T13:56:02;32.40;1.00
11536;DHT22;5824;49.336;8.652;2023-07-24T13:58:27;33.20;1.00
11536;DHT22;5824;49.336;8.652;2023-07-24T14:00:53;32.90;1.00
11536;DHT22;5824;49.336;8.652;2023-07-24T14:03:18;31.00;1.00
11536;DHT22;5824;49.336;8.652;2023-07-24T14:05:44;29.40;1.00
11536;DHT22;5824;49.336;8.652;2023-07-24T14:08:09;28.40;1.00
11536;DHT22;5824;49.336;8.652;2023-07-24T14:10:36;27.80;1.00
11536;DHT22;5824;49.336;8.652;2023-07-24T14:13:03;27.30;1.00
11536;DHT22;5824;49.336;8.652;2023-07-24T14:15:29;26.10;1.00
11536;DHT22;5824;49.336;8.652;2023-07-24T14:17:55;28.00;1.00
11536;DHT22;5824;49.336;8.652;2023-07-24T14:20:20;28.00;1.00
11536;DHT22;5824;49.336;8.652;2023-07-24T14:22:46;27.90;1.00
11536;DHT22;5824;49.336;8.652;2023-07-24T14:25:11;27.60;1.00
11536;DHT22;5824;49.336;8.652;2023-07-24T14:27:37;26.80;1.00
11536;DHT22;5824;49.336;8.652;2023-07-24T14:30:03;26.70;1.00
11536;DHT22;5824;49.336;8.652;2023-07-24T14:32:29;26.50;1.00
11536;DHT22;5824;49.336;8.652;2023-07-24T14:34:54;26.30;1.00
11536;DHT22;5824;49.336;8.652;2023-07-24T14:37:20;26.20;1.00
11536;DHT22;5824;49.336;8.652;2023-07-24T14:39:46;26.10;1.00
11536;DHT22;5824;49.336;8.652;2023-07-24T14:42:12;26.00;1.00
11536;DHT22;5824;49.336;8.652;2023-07-24T14:44:37;25.80;1.00
11536;DHT22;5824;49.336;8.652;2023-07-24T14:47:03;25.60;1.00
11536;DHT22;5824;49.336;8.652;2023-07-24T14:49:28;25.50;1.00
11536;DHT22;5824;49.336;8.652;2023-07-24T14:51:54;24.20;1.00
11536;DHT22;5824;49.336;8.652;2023-07-24T14:54:19;23.20;1.00
11536;DHT22;5824;49.336;8.652;2023-07-24T14:56:45;22.10;1.00
11536;DHT22;5824;49.336;8.652;2023-07-24T14:59:10;22.10;1.00
11536;DHT22;5824;49.336;8.652;2023-07-24T15:01:36;21.80;1.00
11536;DHT22;5824;49.336;8.652;2023-07-24T15:04:01;21.70;1.00
11536;DHT22;5824;49.336;8.652;2023-07-24T15:06:27;21.40;1.00
11536;DHT22;5824;49.336;8.652;2023-07-24T15:08:52;21.30;1.00
11536;DHT22;5824;49.336;8.652;2023-07-24T15:11:21;21.40;1.00
11536;DHT22;5824;49.336;8.652;2023-07-24T15:13:48;21.50;1.00
11536;DHT22;5824;49.336;8.652;2023-07-24T15:16:14;21.40;1.00
11536;DHT22;5824;49.336;8.652;2023-07-24T15:18:39;21.40;1.00
11536;DHT22;5824;49.336;8.652;2023-07-24T15:21:05;21.60;1.00
11536;DHT22;5824;49.336;8.652;2023-07-24T15:23:31;21.60;1.00
11536;DHT22;5824;49.336;8.652;2023-07-24T15:25:56;22.10;1.00
11536;DHT22;5824;49.336;8.652;2023-07-24T15:28:21;22.50;1.00
11536;DHT22;5824;49.336;8.652;2023-07-24T15:30:48;23.50;1.00
11536;DHT22;5824;49.336;8.652;2023-07-24T15:33:14;24.60;1.00
11536;DHT22;5824;49.336;8.652;2023-07-24T15:35:39;25.10;1.00
11536;DHT22;5824;49.336;8.652;2023-07-24T15:38:05;25.60;1.00
11536;DHT22;5824;49.336;8.652;2023-07-24T15:40:31;26.80;1.00
11536;DHT22;5824;49.336;8.652;2023-07-24T15:42:58;27.80;1.00
11536;DHT22;5824;49.336;8.652;2023-07-24T15:45:23;28.40;1.00
11536;DHT22;5824;49.336;8.652;2023-07-24T15:47:49;29.00;1.00
11536;DHT22;5824;49.336;8.652;2023-07-24T15:50:14;28.90;1.00
11536;DHT22;5824;49.336;8.652;2023-07-24T15:52:40;28.60;1.00
11536;DHT22;5824;49.336;8.652;2023-07-24T15:55:06;28.60;1.00
11536;DHT22;5824;49.336;8.652;2023-07-24T15:57:31;28.30;1.00
11536;DHT22;5824;49.336;8.652;2023-07-24T15:59:57;28.10;1.00